Time;durP1;ratioP1;P1;durP2;ratioP2;P2;SDS_P1;SDS_P2;PMS_P1;PMS_P2;Temp;Humidity;BMP_temperature;BMP_pressure;BME280_temperature;BME280_humidity;BME280_pressure;Samples;Min_cycle;Max_cycle;Signal;HPM_P1;HPM_P2
2022/01/25 00:09:05;;;;;;;12.15;4.90;;;;;;;;;;4958462;28;20050;-79
2022/01/25 00:28:46;;;;;;;6.35;4.32;;;;;;;;;;4905709;29;20650;-78
2022/01/25 00:31:33;;;;;;;7.50;4.22;;;;;;;;;;4899750;29;20079;-78
2022/01/25 00:33:44;;;;;;;8.45;4.60;;;;;;;;;;4900330;29;20059;-81
2022/01/25 00:36:16;;;;;;;6.85;4.68;;;;;;;;;;4894526;29;20242;-78
2022/01/25 00:38:44;;;;;;;7.25;4.35;;;;;;;;;;4896862;28;20501;-80
2022/01/25 00:41:11;;;;;;;6.80;4.32;;;;;;;;;;4890510;29;20051;-80
2022/01/25 00:43:37;;;;;;;7.15;4.30;;;;;;;;;;4911473;28;20488;-78
2022/01/25 00:46:08;;;;;;;8.52;4.55;;;;;;;;;;4910832;28;20540;-79
2022/01/25 00:56:24;;;;;;;6.95;4.57;;;;;;;;;;4918236;28;20569;-78
2022/01/25 00:58:51;;;;;;;9.20;4.88;;;;;;;;;;4991868;28;20132;-80
2022/01/25 01:01:19;;;;;;;6.90;4.30;;;;;;;;;;4998152;28;20049;-78
2022/01/25 01:03:46;;;;;;;6.15;4.25;;;;;;;;;;4997719;28;20041;-78
2022/01/25 01:06:14;;;;;;;9.02;4.53;;;;;;;;;;4992430;28;20061;-80
2022/01/25 01:08:41;;;;;;;8.10;4.10;;;;;;;;;;4979295;28;20076;-79
2022/01/25 01:11:11;;;;;;;8.00;4.22;;;;;;;;;;4997466;28;20373;-81
2022/01/25 01:33:17;;;;;;;7.18;4.18;;;;;;;;;;4998884;28;20076;-80
2022/01/25 01:38:08;;;;;;;7.47;4.13;;;;;;;;;;5036288;28;20224;-78
2022/01/25 01:48:10;;;;;;;8.77;4.63;;;;;;;;;;5004569;28;20061;-78
2022/01/25 01:50:38;;;;;;;6.05;3.90;;;;;;;;;;5023596;28;20053;-79
2022/01/25 01:53:07;;;;;;;6.97;4.28;;;;;;;;;;5007125;28;20053;-79
2022/01/25 01:55:35;;;;;;;5.97;4.43;;;;;;;;;;5019286;28;20557;-78
2022/01/25 01:58:03;;;;;;;6.32;4.78;;;;;;;;;;5003337;28;20131;-78
2022/01/25 02:00:41;;;;;;;7.32;4.60;;;;;;;;;;5015104;28;20056;-79
2022/01/25 02:03:08;;;;;;;6.10;4.07;;;;;;;;;;5038264;28;20060;-81
2022/01/25 02:05:35;;;;;;;8.82;4.57;;;;;;;;;;5033151;28;20507;-79
2022/01/25 02:08:02;;;;;;;8.48;4.60;;;;;;;;;;5033067;28;20083;-80
2022/01/25 02:10:30;;;;;;;8.50;4.88;;;;;;;;;;5035027;28;20053;-81
2022/01/25 02:12:56;;;;;;;8.80;4.53;;;;;;;;;;5039705;28;20045;-81
2022/01/25 02:15:26;;;;;;;7.97;4.55;;;;;;;;;;5030772;28;20121;-79
2022/01/25 02:23:18;;;;;;;8.65;4.57;;;;;;;;;;5025655;28;20067;-80
2022/01/25 02:25:46;;;;;;;8.88;4.93;;;;;;;;;;5001813;28;20137;-81
2022/01/25 02:28:12;;;;;;;8.18;5.10;;;;;;;;;;5001914;28;20241;-79
2022/01/25 02:30:39;;;;;;;6.88;4.20;;;;;;;;;;5000060;28;20491;-77
2022/01/25 02:33:05;;;;;;;6.68;3.95;;;;;;;;;;4993722;28;20060;-79
2022/01/25 02:35:34;;;;;;;6.03;4.30;;;;;;;;;;5007210;28;20488;-78
2022/01/25 02:38:00;;;;;;;10.15;4.63;;;;;;;;;;5007059;28;20056;-79
2022/01/25 02:40:26;;;;;;;7.32;4.30;;;;;;;;;;5003085;28;20055;-78
2022/01/25 02:42:53;;;;;;;7.32;4.63;;;;;;;;;;5009660;28;20303;-80
2022/01/25 02:45:21;;;;;;;6.53;4.50;;;;;;;;;;4975802;28;20057;-79
2022/01/25 02:50:32;;;;;;;7.10;4.07;;;;;;;;;;5010380;28;20580;-78
2022/01/25 02:52:58;;;;;;;6.30;4.07;;;;;;;;;;5012421;28;20056;-79
2022/01/25 02:55:25;;;;;;;6.32;3.78;;;;;;;;;;5009065;28;20057;-77
2022/01/25 02:57:51;;;;;;;8.98;3.85;;;;;;;;;;5011100;28;20195;-80
2022/01/25 03:00:19;;;;;;;5.07;3.63;;;;;;;;;;5010309;28;20057;-80
2022/01/25 03:02:46;;;;;;;8.10;4.03;;;;;;;;;;5013461;28;20329;-78
2022/01/25 03:05:12;;;;;;;6.07;3.70;;;;;;;;;;4984005;28;20091;-81
2022/01/25 03:07:39;;;;;;;5.22;3.47;;;;;;;;;;5007168;28;20738;-81
2022/01/25 03:10:06;;;;;;;4.88;3.55;;;;;;;;;;4993582;28;20142;-80
2022/01/25 03:12:41;;;;;;;9.75;3.50;;;;;;;;;;5011026;28;20107;-79
2022/01/25 03:15:41;;;;;;;6.15;3.30;;;;;;;;;;5009332;28;20056;-80
2022/01/25 03:18:01;;;;;;;7.18;3.25;;;;;;;;;;5008856;28;20053;-79
2022/01/25 03:20:49;;;;;;;5.35;3.00;;;;;;;;;;5000506;28;20060;-79
2022/01/25 03:23:20;;;;;;;5.70;3.25;;;;;;;;;;5009267;28;20073;-79
2022/01/25 03:25:49;;;;;;;6.97;3.17;;;;;;;;;;5010521;28;20513;-80
2022/01/25 03:28:16;;;;;;;5.35;3.33;;;;;;;;;;5007548;28;20053;-80
2022/01/25 03:30:44;;;;;;;9.40;3.60;;;;;;;;;;4991942;28;20057;-80
2022/01/25 03:33:12;;;;;;;5.55;3.38;;;;;;;;;;5021046;28;20688;-81
2022/01/25 03:35:38;;;;;;;7.45;3.70;;;;;;;;;;5020754;28;20049;-80
2022/01/25 03:38:05;;;;;;;5.20;3.63;;;;;;;;;;5011975;28;20584;-78
2022/01/25 03:40:31;;;;;;;4.90;3.33;;;;;;;;;;5034184;28;20597;-80
2022/01/25 03:42:59;;;;;;;7.60;3.90;;;;;;;;;;5027884;28;20053;-79
2022/01/25 03:45:32;;;;;;;5.53;3.58;;;;;;;;;;5003742;28;20053;-78
2022/01/25 03:50:48;;;;;;;7.00;3.55;;;;;;;;;;4995642;28;20131;-78
2022/01/25 03:53:16;;;;;;;6.60;4.10;;;;;;;;;;5003119;28;20054;-80
2022/01/25 03:55:43;;;;;;;4.88;3.35;;;;;;;;;;5026438;28;20167;-80
2022/01/25 03:58:10;;;;;;;4.35;3.50;;;;;;;;;;5017053;28;20076;-80
2022/01/25 04:00:37;;;;;;;7.43;4.00;;;;;;;;;;5019251;28;20053;-81
2022/01/25 04:03:15;;;;;;;5.82;3.38;;;;;;;;;;5003609;28;20250;-81
2022/01/25 04:08:09;;;;;;;5.72;3.40;;;;;;;;;;5017848;28;20041;-80
2022/01/25 04:10:36;;;;;;;5.13;3.65;;;;;;;;;;5020810;28;20065;-77
2022/01/25 04:13:04;;;;;;;8.45;3.53;;;;;;;;;;5019933;28;20127;-79
2022/01/25 04:15:32;;;;;;;5.80;3.22;;;;;;;;;;5018671;28;20301;-79
2022/01/25 04:18:13;;;;;;;6.15;3.38;;;;;;;;;;5003097;28;20050;-80
2022/01/25 04:20:42;;;;;;;6.50;3.22;;;;;;;;;;5018410;28;20134;-78
2022/01/25 04:25:54;;;;;;;5.07;3.63;;;;;;;;;;5020000;28;20057;-80
2022/01/25 04:28:20;;;;;;;5.88;3.67;;;;;;;;;;5013791;28;20052;-80
2022/01/25 04:30:46;;;;;;;7.28;3.67;;;;;;;;;;5021967;28;20304;-80
2022/01/25 04:33:19;;;;;;;5.13;3.42;;;;;;;;;;5021719;28;20057;-79
2022/01/25 04:49:32;;;;;;;4.47;2.95;;;;;;;;;;5003777;28;20049;-79
2022/01/25 04:52:05;;;;;;;6.82;3.70;;;;;;;;;;5023067;28;20072;-81
2022/01/25 05:02:04;;;;;;;13.13;3.72;;;;;;;;;;5022426;28;20091;-78
2022/01/25 05:04:36;;;;;;;6.68;3.33;;;;;;;;;;5019085;28;20045;-78
2022/01/25 05:07:18;;;;;;;6.78;3.42;;;;;;;;;;5016649;28;20117;-79
2022/01/25 05:09:47;;;;;;;7.10;3.70;;;;;;;;;;5020844;28;20052;-77
2022/01/25 05:12:14;;;;;;;6.13;3.35;;;;;;;;;;5019103;28;20053;-80
2022/01/25 05:15:21;;;;;;;6.20;3.50;;;;;;;;;;5016730;28;20053;-79
2022/01/25 05:17:42;;;;;;;6.10;3.75;;;;;;;;;;4999501;28;20098;-78
2022/01/25 05:22:55;;;;;;;7.95;3.53;;;;;;;;;;5007791;28;20061;-80
2022/01/25 05:25:22;;;;;;;5.28;3.45;;;;;;;;;;5012451;28;20648;-78
2022/01/25 05:27:48;;;;;;;5.88;3.10;;;;;;;;;;4998234;28;20394;-79
2022/01/25 05:30:14;;;;;;;9.70;3.55;;;;;;;;;;5001529;28;20053;-80
2022/01/25 05:32:40;;;;;;;4.25;2.95;;;;;;;;;;4999362;28;20627;-80
2022/01/25 05:35:07;;;;;;;4.63;2.90;;;;;;;;;;5017719;28;20152;-81
2022/01/25 05:37:39;;;;;;;7.47;3.30;;;;;;;;;;5015693;28;20132;-82
2022/01/25 05:40:09;;;;;;;8.02;3.45;;;;;;;;;;4991704;28;20151;-81
2022/01/25 05:47:38;;;;;;;6.00;3.42;;;;;;;;;;5018169;28;20060;-80
2022/01/25 05:50:04;;;;;;;4.97;3.05;;;;;;;;;;5021004;28;20795;-82
2022/01/25 05:52:31;;;;;;;4.30;3.08;;;;;;;;;;5020358;28;20367;-77
2022/01/25 05:54:59;;;;;;;7.35;3.03;;;;;;;;;;5021065;28;20144;-82
2022/01/25 05:57:25;;;;;;;6.93;3.83;;;;;;;;;;5020738;28;20450;-79
2022/01/25 05:59:53;;;;;;;8.75;4.15;;;;;;;;;;5001855;28;20060;-77
2022/01/25 06:02:21;;;;;;;5.47;3.10;;;;;;;;;;5002538;28;20053;-79
2022/01/25 06:04:47;;;;;;;4.15;3.03;;;;;;;;;;4986147;28;20212;-80
2022/01/25 06:07:14;;;;;;;7.00;2.95;;;;;;;;;;5018177;28;20585;-79
2022/01/25 06:09:41;;;;;;;6.38;3.13;;;;;;;;;;5020846;28;20717;-80
2022/01/25 06:12:10;;;;;;;6.05;2.92;;;;;;;;;;5022522;28;20049;-79
2022/01/25 06:14:37;;;;;;;5.28;3.80;;;;;;;;;;5018938;28;20052;-77
2022/01/25 06:17:04;;;;;;;9.32;3.40;;;;;;;;;;5023314;28;20447;-82
2022/01/25 06:19:30;;;;;;;6.43;3.70;;;;;;;;;;5003376;28;20076;-81
2022/01/25 06:21:56;;;;;;;5.72;3.22;;;;;;;;;;5003260;28;20094;-79
2022/01/25 06:24:23;;;;;;;7.10;3.63;;;;;;;;;;5000936;28;20057;-79
2022/01/25 06:26:49;;;;;;;7.38;3.83;;;;;;;;;;5001087;28;20161;-81
2022/01/25 06:29:18;;;;;;;8.27;4.00;;;;;;;;;;5002352;28;20056;-80
2022/01/25 06:31:47;;;;;;;7.30;4.03;;;;;;;;;;5002462;28;20693;-78
2022/01/25 06:34:15;;;;;;;6.18;4.10;;;;;;;;;;5020541;28;20053;-80
2022/01/25 06:36:41;;;;;;;5.68;4.20;;;;;;;;;;5013368;28;20133;-80
2022/01/25 06:39:08;;;;;;;6.97;4.57;;;;;;;;;;5017750;28;20651;-79
2022/01/25 06:41:36;;;;;;;6.93;4.85;;;;;;;;;;5019073;28;20049;-79
2022/01/25 06:44:03;;;;;;;6.63;4.32;;;;;;;;;;5019901;28;20041;-80
2022/01/25 06:46:29;;;;;;;8.80;4.85;;;;;;;;;;5014287;28;20052;-76
2022/01/25 06:48:55;;;;;;;8.30;5.03;;;;;;;;;;5012787;28;20044;-77
2022/01/25 06:51:21;;;;;;;10.15;5.30;;;;;;;;;;4998257;28;20534;-75
2022/01/25 06:53:47;;;;;;;11.35;5.50;;;;;;;;;;4997672;28;20517;-75
2022/01/25 06:56:13;;;;;;;11.85;5.28;;;;;;;;;;5013378;28;20049;-77
2022/01/25 06:58:41;;;;;;;8.25;5.20;;;;;;;;;;5006572;28;20064;-74
2022/01/25 07:01:08;;;;;;;10.48;5.75;;;;;;;;;;4997381;28;20057;-76
2022/01/25 07:03:34;;;;;;;9.20;4.60;;;;;;;;;;4997028;28;20102;-74
2022/01/25 07:06:00;;;;;;;6.72;4.30;;;;;;;;;;4993849;28;20044;-77
2022/01/25 07:08:27;;;;;;;7.32;4.32;;;;;;;;;;5012692;28;20052;-77
2022/01/25 07:10:54;;;;;;;5.95;3.92;;;;;;;;;;5018073;28;20623;-77
2022/01/25 07:13:21;;;;;;;7.57;3.55;;;;;;;;;;5018365;28;20053;-76
2022/01/25 07:15:47;;;;;;;6.75;3.97;;;;;;;;;;4993013;28;20513;-77
2022/01/25 07:18:15;;;;;;;6.90;3.80;;;;;;;;;;5012028;28;20443;-77
2022/01/25 07:20:41;;;;;;;7.80;4.18;;;;;;;;;;4998480;28;20054;-76
2022/01/25 07:23:07;;;;;;;8.38;4.00;;;;;;;;;;4996298;28;20052;-77
2022/01/25 07:25:33;;;;;;;7.53;4.20;;;;;;;;;;5005061;28;20485;-75
2022/01/25 07:28:00;;;;;;;6.07;3.88;;;;;;;;;;5013131;28;20047;-76
2022/01/25 07:30:26;;;;;;;6.45;3.92;;;;;;;;;;5015317;28;20346;-76
2022/01/25 07:32:52;;;;;;;6.60;3.95;;;;;;;;;;5016002;28;20203;-74
2022/01/25 07:35:18;;;;;;;8.23;3.72;;;;;;;;;;5011136;28;20450;-72
2022/01/25 07:37:45;;;;;;;4.97;3.65;;;;;;;;;;4995354;28;20683;-77
2022/01/25 07:40:12;;;;;;;6.45;3.80;;;;;;;;;;5013327;28;20056;-76
2022/01/25 07:42:40;;;;;;;7.05;4.32;;;;;;;;;;5019249;28;20045;-75
2022/01/25 07:45:10;;;;;;;7.05;3.67;;;;;;;;;;5016145;28;20378;-76
2022/01/25 07:47:36;;;;;;;8.25;4.20;;;;;;;;;;5002043;28;20093;-74
2022/01/25 07:50:04;;;;;;;8.30;3.90;;;;;;;;;;5003815;28;20391;-78
2022/01/25 07:52:31;;;;;;;7.18;4.22;;;;;;;;;;5000603;28;20427;-77
2022/01/25 07:54:57;;;;;;;8.32;4.65;;;;;;;;;;4985059;28;20144;-77
2022/01/25 07:57:23;;;;;;;8.48;4.18;;;;;;;;;;5020191;28;20518;-75
2022/01/25 07:59:49;;;;;;;11.63;4.55;;;;;;;;;;5004278;28;20433;-77
2022/01/25 08:02:19;;;;;;;6.45;4.32;;;;;;;;;;5020959;28;20057;-77
2022/01/25 08:04:45;;;;;;;7.90;4.20;;;;;;;;;;5008393;28;20385;-76
2022/01/25 08:07:13;;;;;;;9.68;4.80;;;;;;;;;;5017025;28;20497;-76
2022/01/25 08:09:39;;;;;;;10.20;4.10;;;;;;;;;;5019894;28;20424;-75
2022/01/25 08:12:05;;;;;;;7.38;4.07;;;;;;;;;;5021153;28;20072;-78
2022/01/25 08:14:32;;;;;;;8.10;4.25;;;;;;;;;;5013602;28;20145;-76
2022/01/25 08:16:58;;;;;;;9.93;3.97;;;;;;;;;;5016754;28;20132;-77
2022/01/25 08:19:24;;;;;;;8.85;4.00;;;;;;;;;;5018559;28;20192;-76
2022/01/25 08:21:51;;;;;;;8.43;4.45;;;;;;;;;;5017350;28;20139;-74
2022/01/25 08:24:21;;;;;;;8.25;3.95;;;;;;;;;;4997591;28;20441;-77
2022/01/25 08:26:48;;;;;;;9.13;4.10;;;;;;;;;;5012691;28;20226;-78
2022/01/25 08:29:15;;;;;;;7.25;4.00;;;;;;;;;;5015270;28;20049;-75
2022/01/25 08:31:41;;;;;;;7.25;3.92;;;;;;;;;;5000362;28;20065;-77
2022/01/25 08:34:11;;;;;;;8.60;3.55;;;;;;;;;;5019254;28;20052;-79
2022/01/25 08:36:38;;;;;;;6.45;3.88;;;;;;;;;;4995872;28;20041;-76
2022/01/25 08:39:05;;;;;;;8.70;3.65;;;;;;;;;;4980178;28;20906;-75
2022/01/25 08:41:32;;;;;;;6.38;4.22;;;;;;;;;;4983485;28;20064;-74
2022/01/25 08:43:58;;;;;;;7.60;4.20;;;;;;;;;;5021275;28;20176;-76
2022/01/25 08:46:26;;;;;;;9.77;4.45;;;;;;;;;;5012752;28;20076;-76
2022/01/25 08:48:52;;;;;;;8.23;4.10;;;;;;;;;;4999681;28;21383;-75
2022/01/25 08:51:19;;;;;;;9.70;3.95;;;;;;;;;;4998827;28;20056;-77
2022/01/25 08:53:45;;;;;;;7.00;3.80;;;;;;;;;;4998693;28;20077;-76
2022/01/25 08:56:11;;;;;;;11.27;3.70;;;;;;;;;;4998208;28;21292;-75
2022/01/25 08:58:38;;;;;;;7.72;4.18;;;;;;;;;;5000111;28;20060;-78
2022/01/25 09:01:04;;;;;;;12.65;4.05;;;;;;;;;;4999334;28;20048;-78
2022/01/25 09:03:30;;;;;;;8.10;3.97;;;;;;;;;;4998447;28;20067;-75
2022/01/25 09:05:57;;;;;;;9.20;4.20;;;;;;;;;;4997025;28;20114;-75
2022/01/25 09:08:26;;;;;;;8.85;4.40;;;;;;;;;;5001169;28;20053;-76
2022/01/25 09:10:58;;;;;;;10.75;4.72;;;;;;;;;;5018563;28;20545;-76
2022/01/25 09:13:24;;;;;;;6.60;3.50;;;;;;;;;;5001801;28;20975;-76
2022/01/25 09:15:51;;;;;;;11.25;4.38;;;;;;;;;;5013195;28;20068;-77
2022/01/25 09:18:17;;;;;;;11.07;4.93;;;;;;;;;;4998929;28;20511;-75
2022/01/25 09:20:44;;;;;;;5.75;4.20;;;;;;;;;;5002543;28;20057;-77
2022/01/25 09:23:10;;;;;;;10.07;4.75;;;;;;;;;;4991271;28;20454;-76
2022/01/25 09:25:37;;;;;;;11.45;4.63;;;;;;;;;;5020112;28;20060;-75
2022/01/25 09:28:04;;;;;;;11.18;5.47;;;;;;;;;;5018373;28;20045;-74
2022/01/25 09:30:30;;;;;;;6.78;4.70;;;;;;;;;;5017480;28;20084;-76
2022/01/25 09:32:57;;;;;;;10.88;5.18;;;;;;;;;;5004110;28;20369;-76
2022/01/25 09:35:24;;;;;;;8.63;5.30;;;;;;;;;;5017800;28;20118;-76
2022/01/25 09:37:51;;;;;;;9.85;5.28;;;;;;;;;;5001987;28;20040;-77
2022/01/25 09:40:18;;;;;;;7.15;4.82;;;;;;;;;;5002983;28;20259;-76
2022/01/25 09:42:45;;;;;;;10.20;4.90;;;;;;;;;;5018916;28;20848;-76
2022/01/25 09:45:11;;;;;;;12.50;5.03;;;;;;;;;;5017368;28;20466;-75
2022/01/25 09:47:39;;;;;;;10.57;4.60;;;;;;;;;;5018342;28;21510;-75
2022/01/25 09:50:06;;;;;;;10.95;4.90;;;;;;;;;;5020495;28;20655;-78
2022/01/25 09:52:33;;;;;;;9.90;3.90;;;;;;;;;;4999685;28;20456;-78
2022/01/25 09:55:02;;;;;;;8.32;4.40;;;;;;;;;;5001133;28;20090;-75
2022/01/25 09:57:28;;;;;;;7.90;4.07;;;;;;;;;;5000474;28;20056;-75
2022/01/25 09:59:56;;;;;;;9.18;4.38;;;;;;;;;;5020025;28;20049;-75
2022/01/25 10:02:45;;;;;;;7.53;4.25;;;;;;;;;;5004611;28;20065;-75
2022/01/25 10:05:25;;;;;;;10.48;4.60;;;;;;;;;;4999544;28;20093;-74
2022/01/25 10:08:04;;;;;;;9.07;4.47;;;;;;;;;;5025996;28;20088;-74
2022/01/25 10:10:30;;;;;;;8.40;4.38;;;;;;;;;;4992118;28;20064;-77
2022/01/25 10:13:30;;;;;;;7.75;4.47;;;;;;;;;;5025084;28;20045;-76
2022/01/25 10:16:06;;;;;;;12.43;4.88;;;;;;;;;;5004551;28;20040;-76
2022/01/25 10:18:50;;;;;;;8.48;4.63;;;;;;;;;;5004659;28;20079;-76
2022/01/25 10:21:35;;;;;;;7.50;4.10;;;;;;;;;;5021373;28;20057;-74
2022/01/25 10:24:12;;;;;;;9.10;3.72;;;;;;;;;;5005780;28;20068;-76
2022/01/25 10:26:47;;;;;;;11.63;4.35;;;;;;;;;;5020591;28;20096;-79
2022/01/25 10:29:16;;;;;;;6.75;3.22;;;;;;;;;;5021011;28;21646;-79
2022/01/25 10:31:49;;;;;;;8.20;3.90;;;;;;;;;;5006961;28;20061;-77
2022/01/25 10:34:22;;;;;;;11.20;3.90;;;;;;;;;;5025272;28;20371;-75
2022/01/25 10:36:49;;;;;;;12.25;3.60;;;;;;;;;;5020644;28;20056;-75
2022/01/25 10:39:32;;;;;;;9.20;3.45;;;;;;;;;;5002598;28;20571;-74
2022/01/25 10:42:05;;;;;;;9.82;3.50;;;;;;;;;;5003470;28;20045;-76
2022/01/25 10:45:04;;;;;;;8.85;3.40;;;;;;;;;;5002270;28;20053;-75
2022/01/25 10:47:46;;;;;;;7.88;3.38;;;;;;;;;;5020287;28;20049;-75
2022/01/25 10:50:17;;;;;;;12.80;3.28;;;;;;;;;;4988217;28;20066;-74
2022/01/25 10:52:45;;;;;;;7.07;3.38;;;;;;;;;;5021133;28;20088;-75
2022/01/25 10:55:12;;;;;;;5.63;3.20;;;;;;;;;;5005484;28;20868;-73
2022/01/25 10:57:39;;;;;;;9.88;3.55;;;;;;;;;;5013710;28;20060;-76
2022/01/25 11:00:09;;;;;;;11.80;3.20;;;;;;;;;;4999736;28;20060;-74
2022/01/25 11:02:52;;;;;;;8.40;3.35;;;;;;;;;;5018048;28;20467;-75
2022/01/25 11:05:19;;;;;;;8.50;2.97;;;;;;;;;;5016914;28;21100;-75
2022/01/25 11:07:46;;;;;;;10.13;2.80;;;;;;;;;;5015004;28;20056;-74
2022/01/25 11:10:20;;;;;;;6.85;2.92;;;;;;;;;;5019165;28;20055;-76
2022/01/25 11:13:01;;;;;;;8.70;3.40;;;;;;;;;;5015071;28;20172;-74
2022/01/25 11:15:27;;;;;;;6.95;2.72;;;;;;;;;;5017906;28;20085;-75
2022/01/25 11:17:53;;;;;;;8.68;3.30;;;;;;;;;;4999772;28;20053;-74
2022/01/25 11:20:19;;;;;;;6.65;2.95;;;;;;;;;;5002610;28;20049;-74
2022/01/25 11:22:47;;;;;;;7.35;3.40;;;;;;;;;;5001582;28;20051;-72
2022/01/25 11:25:17;;;;;;;5.35;2.80;;;;;;;;;;5011868;28;21133;-73
2022/01/25 11:27:45;;;;;;;12.30;3.40;;;;;;;;;;5020473;28;20100;-72
2022/01/25 11:30:15;;;;;;;8.60;3.63;;;;;;;;;;5003198;28;20122;-74
2022/01/25 11:32:45;;;;;;;9.30;3.05;;;;;;;;;;5004300;28;20172;-75
2022/01/25 11:35:14;;;;;;;8.30;2.72;;;;;;;;;;5016817;28;20056;-73
2022/01/25 11:37:46;;;;;;;6.85;2.97;;;;;;;;;;4998146;28;21175;-74
2022/01/25 11:40:27;;;;;;;6.65;3.00;;;;;;;;;;5018986;28;20099;-75
2022/01/25 11:43:07;;;;;;;4.55;2.55;;;;;;;;;;5018889;28;20064;-75
2022/01/25 11:45:36;;;;;;;6.93;3.60;;;;;;;;;;5009608;28;20433;-74
2022/01/25 11:48:02;;;;;;;9.48;3.30;;;;;;;;;;5020642;28;20052;-78
2022/01/25 11:50:31;;;;;;;5.32;2.90;;;;;;;;;;5013842;28;20045;-75
2022/01/25 11:53:07;;;;;;;11.57;4.43;;;;;;;;;;5000689;28;20057;-75
2022/01/25 11:55:42;;;;;;;15.88;3.40;;;;;;;;;;5016875;28;20084;-74
2022/01/25 11:58:21;;;;;;;8.15;3.15;;;;;;;;;;5017922;28;20041;-75
2022/01/25 12:00:51;;;;;;;7.88;3.00;;;;;;;;;;5005186;28;20053;-74
2022/01/25 12:03:25;;;;;;;10.00;3.50;;;;;;;;;;5001784;28;20080;-75
2022/01/25 12:05:55;;;;;;;8.82;3.33;;;;;;;;;;5015613;28;20080;-73
2022/01/25 12:08:37;;;;;;;9.50;3.20;;;;;;;;;;5000928;28;20415;-73
2022/01/25 12:11:28;;;;;;;8.95;3.63;;;;;;;;;;5001452;28;20057;-73
2022/01/25 12:14:11;;;;;;;12.13;4.15;;;;;;;;;;5016036;28;20135;-74
2022/01/25 12:16:45;;;;;;;8.93;3.55;;;;;;;;;;4997445;28;20096;-74
2022/01/25 12:19:20;;;;;;;12.95;3.67;;;;;;;;;;5019370;28;20115;-75
2022/01/25 12:21:53;;;;;;;8.75;3.10;;;;;;;;;;4999303;28;20049;-72
2022/01/25 12:24:40;;;;;;;8.52;3.67;;;;;;;;;;5015341;28;21458;-74
2022/01/25 12:27:28;;;;;;;10.05;3.20;;;;;;;;;;5001334;28;20124;-74
2022/01/25 12:29:59;;;;;;;7.45;2.88;;;;;;;;;;4999344;28;20052;-73
2022/01/25 12:32:35;;;;;;;20.45;3.65;;;;;;;;;;4998024;28;20065;-74
2022/01/25 12:35:30;;;;;;;6.55;3.75;;;;;;;;;;5013774;28;20211;-74
2022/01/25 12:37:58;;;;;;;9.23;3.50;;;;;;;;;;5000568;28;20911;-75
2022/01/25 12:40:25;;;;;;;7.90;3.90;;;;;;;;;;5016326;28;20045;-75
2022/01/25 12:43:04;;;;;;;7.88;3.00;;;;;;;;;;5001226;28;20557;-74
2022/01/25 12:45:43;;;;;;;7.60;3.83;;;;;;;;;;5010622;28;20064;-77
2022/01/25 12:48:12;;;;;;;10.10;3.60;;;;;;;;;;4997157;28;20092;-77
2022/01/25 12:50:41;;;;;;;9.85;3.17;;;;;;;;;;4982856;28;20304;-77
2022/01/25 12:53:10;;;;;;;6.03;2.63;;;;;;;;;;4997163;28;20045;-78
2022/01/25 12:55:41;;;;;;;7.25;2.90;;;;;;;;;;5017431;28;21702;-74
2022/01/25 12:58:09;;;;;;;6.50;2.65;;;;;;;;;;4998129;28;20048;-75
2022/01/25 13:00:43;;;;;;;6.07;2.70;;;;;;;;;;5017370;28;20045;-73
2022/01/25 13:03:31;;;;;;;6.45;3.30;;;;;;;;;;5019372;28;20053;-76
2022/01/25 13:06:06;;;;;;;7.25;3.03;;;;;;;;;;4972644;28;20057;-74
2022/01/25 13:08:43;;;;;;;;;;;;;;;;;;5016745;28;20060;-78
2022/01/25 13:11:20;;;;;;;6.43;3.22;;;;;;;;;;5017931;28;19929;-75
2022/01/25 13:14:14;;;;;;;6.85;2.75;;;;;;;;;;5019365;28;20072;-76
2022/01/25 13:16:58;;;;;;;7.18;3.65;;;;;;;;;;4982248;28;20056;-76
2022/01/25 13:19:33;;;;;;;11.23;2.95;;;;;;;;;;5021690;28;20064;-76
2022/01/25 13:22:05;;;;;;;7.80;2.67;;;;;;;;;;4985538;28;20057;-75
2022/01/25 13:24:38;;;;;;;11.77;2.70;;;;;;;;;;4998695;28;20501;-78
2022/01/25 13:27:12;;;;;;;7.15;2.40;;;;;;;;;;5019052;28;20763;-77
2022/01/25 13:32:35;;;;;;;6.28;2.35;;;;;;;;;;5003812;28;20067;-77
2022/01/25 13:38:03;;;;;;;6.13;2.60;;;;;;;;;;5017857;28;20287;-76
2022/01/25 13:40:44;;;;;;;7.53;2.53;;;;;;;;;;5019090;28;20470;-78
2022/01/25 13:43:32;;;;;;;5.60;2.42;;;;;;;;;;4992750;28;20085;-77
2022/01/25 13:46:06;;;;;;;7.50;2.60;;;;;;;;;;4997982;28;20494;-74
2022/01/25 13:48:34;;;;;;;10.15;3.35;;;;;;;;;;5000500;28;20386;-74
2022/01/25 13:51:03;;;;;;;10.50;4.07;;;;;;;;;;5018650;28;20490;-76
2022/01/25 13:53:30;;;;;;;19.83;8.85;;;;;;;;;;5021403;28;20194;-75
2022/01/25 13:55:58;;;;;;;15.18;6.45;;;;;;;;;;5017338;28;20045;-73
2022/01/25 13:58:26;;;;;;;12.00;3.90;;;;;;;;;;4999426;28;20462;-76
2022/01/25 14:00:55;;;;;;;12.98;3.15;;;;;;;;;;4995076;28;20075;-74
2022/01/25 14:03:27;;;;;;;6.20;2.70;;;;;;;;;;5016608;28;20057;-77
2022/01/25 14:05:54;;;;;;;5.70;2.72;;;;;;;;;;4995470;28;20136;-75
2022/01/25 14:08:40;;;;;;;7.70;2.85;;;;;;;;;;5018530;28;20041;-76
2022/01/25 14:25:24;;;;;;;6.68;2.97;;;;;;;;;;4974008;28;20054;-74
2022/01/25 14:27:55;;;;;;;8.90;3.08;;;;;;;;;;4978529;28;20081;-75
2022/01/25 14:30:21;;;;;;;9.95;2.97;;;;;;;;;;4981369;28;20128;-75
2022/01/25 14:33:02;;;;;;;4.88;2.88;;;;;;;;;;4942822;28;20105;-75
2022/01/25 14:35:30;;;;;;;6.47;2.97;;;;;;;;;;4976566;28;20085;-76
2022/01/25 14:37:57;;;;;;;7.20;2.97;;;;;;;;;;4960739;28;20544;-74
2022/01/25 14:40:23;;;;;;;8.50;3.13;;;;;;;;;;4978720;28;20049;-75
2022/01/25 14:42:49;;;;;;;7.35;2.78;;;;;;;;;;4960883;28;20721;-74
2022/01/25 14:45:20;;;;;;;5.00;3.20;;;;;;;;;;4975688;28;20073;-75
2022/01/25 14:47:48;;;;;;;6.47;3.03;;;;;;;;;;4976039;28;20213;-76
2022/01/25 14:50:26;;;;;;;7.32;2.65;;;;;;;;;;4977474;28;20116;-75
2022/01/25 14:53:12;;;;;;;8.25;2.90;;;;;;;;;;5002431;28;20688;-77
2022/01/25 14:55:42;;;;;;;5.93;2.47;;;;;;;;;;5000233;28;20050;-73
2022/01/25 15:00:48;;;;;;;10.00;2.50;;;;;;;;;;5000364;28;20555;-74
2022/01/25 15:03:15;;;;;;;6.50;2.65;;;;;;;;;;4983227;28;20060;-74
2022/01/25 15:05:42;;;;;;;4.68;2.75;;;;;;;;;;4975185;28;20431;-75
2022/01/25 15:08:08;;;;;;;8.65;2.65;;;;;;;;;;4980287;28;20069;-74
2022/01/25 15:10:42;;;;;;;8.70;2.97;;;;;;;;;;4999911;28;20060;-77
2022/01/25 15:13:09;;;;;;;8.95;2.97;;;;;;;;;;4982782;28;20068;-73
2022/01/25 15:15:54;;;;;;;7.90;3.42;;;;;;;;;;4977573;28;20045;-74
2022/01/25 15:18:30;;;;;;;7.47;2.63;;;;;;;;;;4966238;28;20064;-73
2022/01/25 15:20:59;;;;;;;6.55;2.83;;;;;;;;;;4980291;28;20060;-77
2022/01/25 15:23:28;;;;;;;7.82;3.00;;;;;;;;;;4996439;28;20064;-75
2022/01/25 15:26:00;;;;;;;6.10;2.58;;;;;;;;;;4980059;28;20045;-75
2022/01/25 15:29:04;;;;;;;7.20;2.90;;;;;;;;;;4988150;28;20414;-76
2022/01/25 15:31:23;;;;;;;6.68;3.40;;;;;;;;;;5002866;28;20088;-77
2022/01/25 15:33:51;;;;;;;5.00;2.35;;;;;;;;;;5001548;28;20945;-75
2022/01/25 15:36:19;;;;;;;7.50;2.35;;;;;;;;;;5013179;28;20187;-76
2022/01/25 15:38:48;;;;;;;7.70;2.00;;;;;;;;;;5019270;28;20056;-75
2022/01/25 15:41:15;;;;;;;4.50;2.08;;;;;;;;;;5019742;28;20126;-75
2022/01/25 15:43:50;;;;;;;7.20;2.35;;;;;;;;;;5002847;28;20417;-73
2022/01/25 15:46:26;;;;;;;4.65;1.98;;;;;;;;;;5019690;28;20049;-72
2022/01/25 15:48:56;;;;;;;7.15;2.20;;;;;;;;;;5020558;28;20148;-75
2022/01/25 15:51:22;;;;;;;6.05;2.20;;;;;;;;;;5022347;28;20057;-75
2022/01/25 15:53:50;;;;;;;5.05;2.00;;;;;;;;;;4989117;28;20072;-73
2022/01/25 15:56:17;;;;;;;3.53;1.55;;;;;;;;;;5015803;28;21376;-74
2022/01/25 15:58:44;;;;;;;7.38;1.60;;;;;;;;;;5000319;28;20390;-71
2022/01/25 16:01:11;;;;;;;7.13;3.00;;;;;;;;;;5000820;28;20278;-74
2022/01/25 16:03:40;;;;;;;4.50;1.90;;;;;;;;;;5019212;28;20067;-75
2022/01/25 16:06:07;;;;;;;2.92;1.20;;;;;;;;;;4999495;28;20118;-72
2022/01/25 16:08:35;;;;;;;2.47;1.00;;;;;;;;;;5018743;28;20498;-72
2022/01/25 16:11:06;;;;;;;7.30;1.73;;;;;;;;;;5018854;28;20169;-75
2022/01/25 16:13:32;;;;;;;3.92;1.20;;;;;;;;;;5002435;28;20071;-72
2022/01/25 16:15:59;;;;;;;3.70;1.10;;;;;;;;;;5001176;28;20037;-76
2022/01/25 16:18:25;;;;;;;4.20;1.23;;;;;;;;;;5001585;28;20049;-76
2022/01/25 16:20:51;;;;;;;3.53;1.52;;;;;;;;;;5019000;28;20064;-76
2022/01/25 16:23:18;;;;;;;4.65;1.50;;;;;;;;;;5020910;28;20057;-74
2022/01/25 16:25:44;;;;;;;9.18;1.70;;;;;;;;;;5014434;28;20789;-78
2022/01/25 16:28:11;;;;;;;6.28;1.45;;;;;;;;;;5003138;28;20616;-72
2022/01/25 16:30:37;;;;;;;3.60;1.27;;;;;;;;;;4999503;28;20450;-73
2022/01/25 16:33:05;;;;;;;5.93;1.30;;;;;;;;;;5019571;28;20670;-75
2022/01/25 16:35:31;;;;;;;3.38;1.50;;;;;;;;;;5017852;28;20056;-74
2022/01/25 16:37:57;;;;;;;3.90;1.20;;;;;;;;;;4998744;28;20081;-73
2022/01/25 16:40:23;;;;;;;3.95;1.42;;;;;;;;;;4997662;28;20067;-75
2022/01/25 16:42:49;;;;;;;4.93;1.38;;;;;;;;;;5001458;28;20057;-76
2022/01/25 16:45:17;;;;;;;3.08;1.30;;;;;;;;;;4999603;28;20798;-77
2022/01/25 16:47:46;;;;;;;3.97;1.55;;;;;;;;;;5018445;28;20077;-73
2022/01/25 16:50:17;;;;;;;5.68;1.42;;;;;;;;;;5021999;28;21112;-75
2022/01/25 16:52:43;;;;;;;8.30;1.80;;;;;;;;;;5020198;28;20060;-74
2022/01/25 16:55:12;;;;;;;5.03;1.60;;;;;;;;;;5008896;28;20056;-73
2022/01/25 16:57:38;;;;;;;6.38;1.67;;;;;;;;;;5041931;28;20059;-74
2022/01/25 17:00:10;;;;;;;5.30;1.60;;;;;;;;;;5028575;28;20380;-74
2022/01/25 17:02:38;;;;;;;5.75;1.85;;;;;;;;;;5036076;28;20095;-74
2022/01/25 17:05:05;;;;;;;6.50;1.83;;;;;;;;;;5039483;28;20045;-74
2022/01/25 17:07:32;;;;;;;4.60;1.63;;;;;;;;;;5032578;28;20048;-71